Time;durP1;ratioP1;P1;durP2;ratioP2;P2;SDS_P1;SDS_P2;PMS_P1;PMS_P2;Temp;Humidity;BMP_temperature;BMP_pressure;BME280_temperature;BME280_humidity;BME280_pressure;Samples;Min_cycle;Max_cycle;Signal;HPM_P1;HPM_P2
2021/12/17 00:03:06;;;;;;;115.20;53.78;;;;;;;8.21;97.68;103351.84;5129951;27;20051;-54
2021/12/17 00:05:17;;;;;;;107.05;49.97;;;;;;;8.30;97.61;103350.56;5129322;28;20059;-50
2021/12/17 00:07:44;;;;;;;104.85;53.03;;;;;;;8.39;97.47;103357.13;5129551;27;20126;-51
2021/12/17 00:10:14;;;;;;;102.68;51.25;;;;;;;8.43;97.11;103358.69;5128835;27;20415;-53
2021/12/17 00:12:42;;;;;;;111.05;52.63;;;;;;;8.50;97.28;103360.06;5129254;27;20130;-53
2021/12/17 00:15:10;;;;;;;116.40;54.08;;;;;;;8.41;97.12;103363.97;5129359;27;20525;-54
2021/12/17 00:17:49;;;;;;;105.97;50.88;;;;;;;8.40;97.34;103357.06;5129299;27;20082;-54
2021/12/17 00:20:40;;;;;;;113.88;53.85;;;;;;;8.33;97.38;103360.88;5129374;27;20043;-52
2021/12/17 00:50:53;;;;;;;109.30;51.80;;;;;;;8.37;97.44;103351.16;5128719;28;20066;-53
2021/12/17 00:53:24;;;;;;;105.90;49.95;;;;;;;8.35;97.46;103347.78;5128855;27;20425;-52
2021/12/17 00:55:53;;;;;;;101.32;51.00;;;;;;;8.31;97.53;103347.03;5126700;27;20043;-52
2021/12/17 00:58:20;;;;;;;95.45;48.83;;;;;;;8.34;97.50;103346.06;5114645;28;20047;-52
2021/12/17 01:00:47;;;;;;;104.38;50.60;;;;;;;8.38;97.32;103345.00;5114694;28;20130;-54
2021/12/17 01:03:14;;;;;;;98.95;51.28;;;;;;;8.39;97.07;103331.88;5114992;28;20093;-49
2021/12/17 01:05:42;;;;;;;107.10;49.78;;;;;;;8.36;97.35;103331.19;5114424;28;20047;-53
2021/12/17 01:08:09;;;;;;;103.07;49.67;;;;;;;8.30;97.25;103324.47;5114621;28;20127;-51
2021/12/17 01:10:42;;;;;;;111.05;51.92;;;;;;;8.44;96.98;103329.91;5114700;28;20149;-53
2021/12/17 01:13:10;;;;;;;112.65;51.88;;;;;;;8.43;96.75;103329.97;5114446;28;20088;-53
2021/12/17 01:15:39;;;;;;;103.68;49.80;;;;;;;8.38;97.04;103321.53;5114568;27;20055;-50
2021/12/17 01:18:11;;;;;;;106.28;49.22;;;;;;;8.35;97.23;103321.69;5114245;28;20107;-55
2021/12/17 01:21:06;;;;;;;109.38;50.78;;;;;;;8.31;97.31;103311.34;5114462;28;20087;-55
2021/12/17 01:42:42;;;;;;;99.15;47.97;;;;;;;8.28;97.33;103306.28;5114030;28;20508;-54
2021/12/17 01:45:09;;;;;;;94.60;47.45;;;;;;;8.28;97.41;103310.66;5113472;28;20082;-50
2021/12/17 01:47:36;;;;;;;101.85;48.55;;;;;;;8.23;97.71;103316.09;5113887;27;20135;-50
2021/12/17 01:56:02;;;;;;;102.03;48.45;;;;;;;8.24;97.65;103314.34;5113460;28;20059;-52
2021/12/17 02:01:13;;;;;;;102.60;49.05;;;;;;;8.24;97.47;103330.00;5114276;28;20200;-54
2021/12/17 02:03:44;;;;;;;94.65;48.22;;;;;;;8.39;97.41;103328.44;5113399;28;20055;-51
2021/12/17 02:06:10;;;;;;;98.50;47.35;;;;;;;8.30;97.38;103329.69;5113422;28;20044;-51
2021/12/17 02:08:37;;;;;;;95.45;47.60;;;;;;;8.30;97.32;103332.31;5112423;27;20525;-55
2021/12/17 02:22:44;;;;;;;100.68;49.45;;;;;;;8.21;97.71;103331.00;5111417;28;20055;-49
2021/12/17 02:30:52;;;;;;;99.72;48.33;;;;;;;8.21;97.59;103336.22;5112821;28;20814;-54
2021/12/17 02:33:20;;;;;;;103.05;48.17;;;;;;;8.29;97.11;103338.44;5112990;28;20055;-50
2021/12/17 02:35:49;;;;;;;96.78;46.83;;;;;;;8.20;97.41;103339.72;5112707;28;20142;-54
2021/12/17 02:38:17;;;;;;;97.63;46.05;;;;;;;8.15;97.50;103341.72;5112781;28;20055;-53
2021/12/17 02:46:12;;;;;;;94.00;45.42;;;;;;;8.16;97.07;103342.56;5106420;28;20417;-47
2021/12/17 02:48:42;;;;;;;94.47;45.83;;;;;;;8.19;96.91;103332.81;5112845;28;20533;-48
2021/12/17 02:51:09;;;;;;;90.30;44.17;;;;;;;8.16;96.76;103332.97;5112644;28;20130;-43
2021/12/17 02:53:37;;;;;;;89.63;43.17;;;;;;;8.18;96.66;103331.13;5112596;28;20135;-49
2021/12/17 02:56:08;;;;;;;90.72;41.95;;;;;;;8.15;96.91;103328.69;5112517;28;20407;-46
2021/12/17 02:58:37;;;;;;;86.93;41.65;;;;;;;8.18;96.53;103330.28;5112145;28;20054;-48
2021/12/17 03:01:06;;;;;;;86.68;41.28;;;;;;;8.19;96.51;103326.75;5112067;28;20059;-48
2021/12/17 03:03:34;;;;;;;89.47;42.22;;;;;;;8.20;96.63;103334.50;5112038;28;20043;-48
2021/12/17 03:06:02;;;;;;;86.20;40.17;;;;;;;8.22;96.48;103327.47;5111828;28;20048;-47
2021/12/17 03:08:30;;;;;;;82.65;40.33;;;;;;;8.22;96.48;103324.84;5112469;28;20052;-50
2021/12/17 03:10:59;;;;;;;84.18;40.08;;;;;;;8.22;96.55;103322.25;5112479;28;20043;-53
2021/12/17 03:13:29;;;;;;;77.57;38.45;;;;;;;8.24;96.39;103328.22;5111995;28;20265;-45
2021/12/17 03:16:00;;;;;;;77.28;38.97;;;;;;;8.17;96.41;103324.22;5112112;28;20134;-46
2021/12/17 03:23:54;;;;;;;80.78;40.45;;;;;;;8.16;96.69;103324.31;5112235;28;20432;-45
2021/12/17 03:26:24;;;;;;;85.68;40.75;;;;;;;8.14;96.69;103319.16;5112000;28;20071;-45
2021/12/17 03:28:53;;;;;;;92.30;40.75;;;;;;;8.17;96.55;103312.94;5111615;28;20092;-47
2021/12/17 03:31:22;;;;;;;84.57;38.05;;;;;;;8.21;96.65;103310.13;5112084;28;20580;-51
2021/12/17 03:33:51;;;;;;;80.00;39.30;;;;;;;8.17;96.56;103319.00;5111919;28;20090;-47
2021/12/17 03:36:20;;;;;;;83.00;39.20;;;;;;;8.14;96.43;103313.94;5111665;28;20047;-46
2021/12/17 03:38:51;;;;;;;80.65;38.88;;;;;;;8.17;96.28;103313.78;5111797;28;20067;-46
2021/12/17 03:41:21;;;;;;;78.70;37.63;;;;;;;8.16;96.59;103313.88;5111725;28;20059;-51
2021/12/17 03:43:51;;;;;;;78.82;37.47;;;;;;;8.23;96.30;103313.50;5111897;28;20096;-53
2021/12/17 03:46:19;;;;;;;69.22;37.15;;;;;;;8.22;96.27;103314.41;5112245;28;20075;-54
2021/12/17 03:48:47;;;;;;;71.38;35.95;;;;;;;8.23;96.46;103317.88;5112333;28;20461;-49
2021/12/17 03:51:16;;;;;;;80.78;38.00;;;;;;;8.23;96.33;103318.72;5112737;28;20083;-48
2021/12/17 03:53:45;;;;;;;78.68;38.92;;;;;;;8.32;96.24;103312.22;5125043;28;20078;-55
2021/12/17 03:56:12;;;;;;;72.78;37.22;;;;;;;8.26;96.11;103307.28;5111854;28;20112;-48
2021/12/17 03:58:39;;;;;;;76.70;37.75;;;;;;;8.23;96.26;103318.72;5111322;28;20460;-48
2021/12/17 04:01:07;;;;;;;76.50;37.88;;;;;;;8.28;96.08;103316.72;5111682;28;20082;-52
2021/12/17 04:03:35;;;;;;;74.18;38.15;;;;;;;8.21;96.14;103315.34;5111392;28;20126;-47
2021/12/17 04:06:02;;;;;;;80.28;38.83;;;;;;;8.15;96.23;103310.41;5111309;28;20051;-47
2021/12/17 04:08:29;;;;;;;77.25;38.13;;;;;;;8.22;96.25;103316.19;5111168;28;20115;-48
2021/12/17 04:11:03;;;;;;;80.68;38.72;;;;;;;8.22;96.25;103317.03;5111379;28;20157;-53
2021/12/17 04:13:33;;;;;;;75.32;39.55;;;;;;;8.23;96.38;103307.44;5111483;28;20051;-55
2021/12/17 04:16:03;;;;;;;78.20;38.30;;;;;;;8.28;96.31;103321.94;5111316;28;20040;-45
2021/12/17 04:18:32;;;;;;;78.00;38.35;;;;;;;8.26;96.29;103309.91;5111168;28;20260;-48
2021/12/17 04:21:01;;;;;;;76.57;38.58;;;;;;;8.27;96.26;103304.59;5111490;28;20055;-52
2021/12/17 04:23:27;;;;;;;78.10;38.22;;;;;;;8.24;96.46;103299.53;5111535;28;20131;-49
2021/12/17 04:25:55;;;;;;;75.45;37.85;;;;;;;8.24;96.28;103303.91;5111362;28;20044;-46
2021/12/17 04:28:22;;;;;;;77.82;37.80;;;;;;;8.24;96.44;103315.19;5111227;28;20052;-46
2021/12/17 04:30:49;;;;;;;76.20;38.58;;;;;;;8.27;96.44;103311.59;5111771;28;20112;-47
2021/12/17 04:33:17;;;;;;;78.05;38.65;;;;;;;8.26;96.39;103310.75;5114702;28;20066;-48
2021/12/17 04:35:46;;;;;;;82.97;39.88;;;;;;;8.23;96.49;103313.50;5115360;28;20465;-45
2021/12/17 04:38:15;;;;;;;76.10;37.42;;;;;;;8.24;96.55;103311.72;5114917;28;20054;-50
2021/12/17 04:40:43;;;;;;;76.28;38.33;;;;;;;8.38;96.08;103318.91;5114798;28;20466;-47
2021/12/17 04:43:32;;;;;;;75.32;38.00;;;;;;;8.29;96.16;103322.78;5115016;28;20131;-50
2021/12/17 04:46:12;;;;;;;74.85;37.08;;;;;;;8.34;96.20;103322.59;5114834;28;20043;-45
2021/12/17 04:59:38;;;;;;;79.50;39.83;;;;;;;8.26;96.11;103313.34;5114504;28;20084;-49
2021/12/17 05:02:05;;;;;;;78.82;40.60;;;;;;;8.23;95.82;103312.66;5114262;28;20550;-49
2021/12/17 05:04:32;;;;;;;81.57;40.58;;;;;;;8.23;95.95;103317.88;5114479;28;20075;-48
2021/12/17 05:07:00;;;;;;;84.65;41.50;;;;;;;8.24;95.79;103316.94;5114495;28;20079;-47
2021/12/17 05:09:34;;;;;;;80.45;41.30;;;;;;;8.12;96.07;103309.72;5114456;28;20134;-48
2021/12/17 05:20:27;;;;;;;78.38;39.63;;;;;;;8.15;96.14;103314.78;5113348;28;20456;-50
2021/12/17 05:22:58;;;;;;;74.35;39.00;;;;;;;8.17;96.31;103315.56;5113370;28;20059;-48
2021/12/17 05:25:27;;;;;;;72.00;38.10;;;;;;;8.18;96.31;103318.09;5113215;28;20047;-50
2021/12/17 05:27:59;;;;;;;79.80;39.58;;;;;;;8.19;96.09;103318.94;5112961;28;20051;-49
2021/12/17 05:30:27;;;;;;;72.10;38.90;;;;;;;8.21;96.17;103323.16;5113199;28;20044;-47
2021/12/17 05:32:53;;;;;;;70.93;38.85;;;;;;;8.25;96.08;103316.88;5113093;28;20101;-45
2021/12/17 05:35:20;;;;;;;74.32;38.92;;;;;;;8.21;96.24;103317.94;5112774;28;20051;-52
2021/12/17 05:37:46;;;;;;;80.45;39.55;;;;;;;8.17;96.28;103324.22;5112984;28;20470;-44
2021/12/17 05:40:15;;;;;;;85.75;41.47;;;;;;;8.19;96.17;103318.94;5112741;28;20047;-45
2021/12/17 05:42:42;;;;;;;79.88;40.63;;;;;;;8.21;96.13;103310.13;5113010;28;20106;-48
2021/12/17 05:45:21;;;;;;;79.60;41.40;;;;;;;8.29;95.79;103313.19;5113322;28;20054;-47
2021/12/17 05:47:48;;;;;;;86.55;42.00;;;;;;;8.19;96.06;103311.97;5112979;28;20129;-53
2021/12/17 05:50:14;;;;;;;79.18;39.97;;;;;;;8.18;96.23;103315.47;5102381;28;20048;-45
2021/12/17 05:52:41;;;;;;;86.05;42.38;;;;;;;8.11;96.56;103316.69;5109570;28;20078;-48
2021/12/17 05:55:08;;;;;;;87.68;42.60;;;;;;;8.10;96.73;103315.00;5112052;28;20157;-51
2021/12/17 05:57:36;;;;;;;96.15;43.88;;;;;;;8.12;96.57;103313.19;5108574;28;20112;-52
2021/12/17 06:00:04;;;;;;;87.43;44.28;;;;;;;8.05;96.89;103303.09;5104322;28;20142;-49
2021/12/17 06:02:32;;;;;;;88.13;43.22;;;;;;;8.12;96.76;103305.34;5111855;28;20468;-45
2021/12/17 06:04:59;;;;;;;90.18;44.38;;;;;;;8.03;97.15;103295.38;5112185;28;20409;-50
2021/12/17 06:07:27;;;;;;;92.25;44.22;;;;;;;8.03;97.19;103304.97;5111730;28;20172;-47
2021/12/17 06:09:58;;;;;;;93.82;44.10;;;;;;;7.98;97.38;103303.44;5111148;28;20090;-50
2021/12/17 06:12:24;;;;;;;94.80;43.53;;;;;;;7.98;97.45;103302.59;5111835;28;20075;-49
2021/12/17 06:14:55;;;;;;;87.78;44.83;;;;;;;8.05;97.24;103309.16;5111875;28;20130;-46
2021/12/17 06:17:22;;;;;;;95.85;44.13;;;;;;;8.00;97.33;103305.97;5111676;28;20052;-46
2021/12/17 06:19:49;;;;;;;106.72;47.90;;;;;;;7.96;97.40;103304.44;5110296;28;20044;-46
2021/12/17 06:22:16;;;;;;;97.47;45.80;;;;;;;7.91;97.68;103307.25;5110910;28;20052;-47
2021/12/17 06:24:44;;;;;;;96.60;46.05;;;;;;;7.91;97.78;103309.84;5111085;28;20154;-45
2021/12/17 06:27:11;;;;;;;99.72;48.58;;;;;;;7.91;97.95;103306.41;5111077;28;20043;-48
2021/12/17 06:29:38;;;;;;;101.28;47.63;;;;;;;7.89;97.93;103316.06;5110549;28;20100;-45
2021/12/17 06:32:07;;;;;;;98.10;48.35;;;;;;;7.91;98.05;103314.22;5110596;28;20075;-45
2021/12/17 06:34:34;;;;;;;106.53;47.47;;;;;;;7.89;98.12;103313.47;5110942;28;20097;-50
2021/12/17 06:37:01;;;;;;;106.32;49.22;;;;;;;7.89;98.17;103316.06;5110387;28;20130;-46
2021/12/17 06:39:28;;;;;;;100.68;47.45;;;;;;;7.96;98.01;103315.69;5109659;28;20112;-45
2021/12/17 06:41:55;;;;;;;104.40;46.45;;;;;;;7.97;97.89;103316.53;5110259;28;20469;-45
2021/12/17 06:44:24;;;;;;;109.05;47.17;;;;;;;7.95;97.87;103321.00;5109540;28;20094;-49
2021/12/17 06:46:57;;;;;;;108.18;48.75;;;;;;;7.95;97.72;103321.84;5110468;28;20414;-45
2021/12/17 06:49:31;;;;;;;102.82;45.95;;;;;;;7.95;97.87;103327.03;5111326;28;20438;-51
2021/12/17 06:55:06;;;;;;;98.28;48.22;;;;;;;8.01;97.78;103328.53;5111325;28;20058;-46
2021/12/17 07:00:36;;;;;;;102.50;46.42;;;;;;;8.02;97.71;103330.22;5111796;28;20052;-54
2021/12/17 07:06:03;;;;;;;95.70;46.45;;;;;;;8.07;97.42;103337.78;5111292;28;20096;-49
2021/12/17 07:11:32;;;;;;;;;;;;;;;8.20;97.09;103324.09;5110965;28;20108;-45
2021/12/17 07:22:21;;;;;;;91.47;42.40;;;;;;;7.96;97.65;103320.06;5111030;28;20516;-47
2021/12/17 07:28:02;;;;;;;91.60;42.92;;;;;;;7.99;97.72;103319.94;5111404;28;20048;-50
2021/12/17 07:33:12;;;;;;;93.50;45.33;;;;;;;8.02;97.95;103319.78;5111135;28;20079;-46
2021/12/17 07:35:46;;;;;;;94.00;44.08;;;;;;;8.13;97.56;103330.50;5110702;28;20134;-46
2021/12/17 07:41:11;;;;;;;88.10;43.95;;;;;;;7.93;97.78;103334.09;5028063;28;20404;-48
2021/12/17 07:43:39;;;;;;;88.57;41.97;;;;;;;7.94;98.07;103332.34;5090349;28;20138;-48
2021/12/17 07:46:09;;;;;;;96.90;43.55;;;;;;;7.99;98.28;103327.75;5110743;28;20048;-49
2021/12/17 07:48:37;;;;;;;88.70;43.70;;;;;;;8.10;97.60;103333.28;5110939;28;20120;-47
2021/12/17 07:51:08;;;;;;;98.47;47.90;;;;;;;8.08;97.38;103334.25;5111219;28;20052;-48
2021/12/17 07:53:36;;;;;;;89.82;43.85;;;;;;;8.04;97.68;103340.53;5111385;28;20147;-48
2021/12/17 07:56:05;;;;;;;93.63;45.72;;;;;;;8.04;98.01;103330.09;5110823;28;20122;-50
2021/12/17 07:58:33;;;;;;;97.15;44.55;;;;;;;8.12;97.68;103330.59;5110538;28;20083;-47
2021/12/17 08:01:00;;;;;;;96.32;46.25;;;;;;;8.08;97.89;103329.03;5110703;28;20562;-46
2021/12/17 08:03:27;;;;;;;97.47;47.45;;;;;;;8.22;97.32;103343.13;5111004;28;20134;-48
2021/12/17 08:05:55;;;;;;;96.07;46.53;;;;;;;8.32;96.82;103339.16;5110607;28;20142;-48
2021/12/17 08:08:22;;;;;;;89.20;44.40;;;;;;;8.27;96.72;103345.50;5114511;28;20047;-49
2021/12/17 08:10:51;;;;;;;98.32;47.28;;;;;;;8.14;97.29;103347.84;5112212;28;20186;-47
2021/12/17 08:13:21;;;;;;;97.68;47.55;;;;;;;8.22;97.38;103356.16;5113904;28;20123;-46
2021/12/17 08:16:03;;;;;;;93.13;45.17;;;;;;;8.09;97.54;103352.44;5113862;28;20419;-49
2021/12/17 08:18:45;;;;;;;92.25;45.53;;;;;;;8.10;97.81;103361.94;5114007;28;20043;-52
2021/12/17 08:27:09;;;;;;;100.82;47.25;;;;;;;8.13;97.84;103363.56;5031370;28;20503;-46
2021/12/17 08:29:53;;;;;;;103.65;48.05;;;;;;;8.21;97.82;103366.66;5102873;28;20047;-52
2021/12/17 08:32:20;;;;;;;104.10;48.80;;;;;;;8.21;97.52;103361.44;5112975;28;20462;-49
2021/12/17 08:34:47;;;;;;;109.50;49.90;;;;;;;8.23;97.84;103370.88;5114353;28;20154;-45
2021/12/17 08:37:14;;;;;;;108.10;49.72;;;;;;;8.12;97.88;103377.53;5113759;28;20564;-50
2021/12/17 08:39:41;;;;;;;108.80;49.92;;;;;;;8.17;97.87;103376.41;5114323;28;20135;-48
2021/12/17 08:42:09;;;;;;;114.35;53.95;;;;;;;8.12;98.12;103365.34;5114561;28;20051;-49
2021/12/17 08:44:36;;;;;;;115.00;51.47;;;;;;;8.08;98.15;103370.78;5137694;22;20138;-53
2021/12/17 08:47:05;;;;;;;115.60;52.03;;;;;;;8.09;98.34;103369.84;5128085;27;20460;-52
2021/12/17 08:49:32;;;;;;;112.00;52.05;;;;;;;8.07;98.38;103369.91;5135386;27;20084;-50
2021/12/17 08:51:58;;;;;;;118.43;52.92;;;;;;;8.04;98.41;103370.06;5135679;27;20062;-52
2021/12/17 08:54:26;;;;;;;117.18;52.20;;;;;;;8.08;98.61;103381.19;5135505;27;20475;-51
2021/12/17 08:56:52;;;;;;;117.85;54.50;;;;;;;8.07;98.46;103382.97;5135400;27;20043;-51
2021/12/17 08:59:21;;;;;;;123.90;52.85;;;;;;;8.08;98.63;103387.25;5135234;27;20469;-50
2021/12/17 09:01:48;;;;;;;128.73;54.22;;;;;;;8.07;98.75;103387.34;5135126;27;20053;-54
2021/12/17 09:04:15;;;;;;;124.43;54.08;;;;;;;8.11;98.84;103384.50;5135278;27;20158;-51
2021/12/17 09:06:42;;;;;;;150.32;65.75;;;;;;;8.17;98.78;103392.03;5135222;27;20091;-51
2021/12/17 09:09:09;;;;;;;128.75;56.58;;;;;;;8.18;98.65;103400.72;5135021;27;20074;-49
2021/12/17 09:11:35;;;;;;;133.82;53.88;;;;;;;8.25;98.69;103395.13;5135089;27;20108;-55
2021/12/17 09:14:05;;;;;;;126.97;56.03;;;;;;;8.21;98.36;103397.97;5135430;27;20395;-51
2021/12/17 09:16:33;;;;;;;126.60;53.47;;;;;;;8.20;98.77;103389.28;5134939;27;20051;-50
2021/12/17 09:19:00;;;;;;;122.65;55.30;;;;;;;8.20;98.57;103399.72;5134419;27;20576;-50
2021/12/17 09:21:27;;;;;;;130.32;55.60;;;;;;;8.22;98.77;103394.44;5134679;27;20138;-52
2021/12/17 09:23:56;;;;;;;136.85;55.55;;;;;;;8.26;98.69;103396.81;5135269;27;20473;-50
2021/12/17 09:26:24;;;;;;;144.82;56.35;;;;;;;8.19;98.77;103395.44;5135046;27;20046;-49
2021/12/17 09:28:50;;;;;;;133.93;56.35;;;;;;;8.27;98.86;103397.66;5134284;27;20130;-51
2021/12/17 09:31:18;;;;;;;125.82;54.55;;;;;;;8.30;98.37;103402.75;5134850;27;20130;-52
2021/12/17 09:33:49;;;;;;;135.10;55.90;;;;;;;8.26;98.48;103398.59;5134939;27;20126;-53
2021/12/17 09:36:16;;;;;;;145.98;56.33;;;;;;;8.25;98.63;103404.72;5134011;27;20047;-51
2021/12/17 09:38:46;;;;;;;144.75;57.88;;;;;;;8.27;98.62;103408.94;5134534;27;20143;-51
2021/12/17 09:41:13;;;;;;;156.25;57.03;;;;;;;8.24;98.76;103405.66;5134416;27;20134;-49
2021/12/17 09:43:39;;;;;;;143.35;56.90;;;;;;;8.22;98.61;103407.47;5134546;27;20111;-50
2021/12/17 09:46:08;;;;;;;136.80;56.97;;;;;;;8.25;98.94;103408.19;5134603;27;20472;-52
2021/12/17 09:48:36;;;;;;;149.05;57.65;;;;;;;8.34;98.63;103408.69;5134400;27;20208;-51
2021/12/17 09:51:07;;;;;;;155.88;58.63;;;;;;;8.35;98.27;103415.59;5134566;27;20130;-50
2021/12/17 09:53:35;;;;;;;147.45;56.17;;;;;;;8.32;98.60;103420.03;5134415;27;20043;-55
2021/12/17 09:56:02;;;;;;;155.65;57.20;;;;;;;8.30;98.59;103421.84;5134162;27;20130;-57
2021/12/17 09:58:29;;;;;;;151.88;56.85;;;;;;;8.30;98.74;103413.19;5134520;27;20442;-50
2021/12/17 10:00:56;;;;;;;148.50;56.55;;;;;;;8.34;98.63;103424.34;5134319;27;20047;-52
2021/12/17 10:03:23;;;;;;;154.30;56.20;;;;;;;8.34;98.66;103430.41;5135125;27;20134;-55
2021/12/17 10:05:50;;;;;;;168.95;59.30;;;;;;;8.28;98.58;103426.28;5134793;27;20082;-54
2021/12/17 10:08:20;;;;;;;159.10;55.97;;;;;;;8.30;98.76;103419.25;5133418;27;20069;-51
2021/12/17 10:10:49;;;;;;;166.18;58.10;;;;;;;8.34;99.01;103424.34;5134406;27;20058;-51
2021/12/17 10:13:19;;;;;;;180.75;61.05;;;;;;;8.31;98.81;103418.31;5133974;27;20086;-52
2021/12/17 10:15:49;;;;;;;153.00;57.38;;;;;;;8.46;98.72;103422.00;5133825;27;20126;-54
2021/12/17 10:18:18;;;;;;;166.45;57.67;;;;;;;8.42;98.63;103411.78;5133674;27;20501;-51
2021/12/17 10:20:56;;;;;;;158.23;59.13;;;;;;;8.35;98.60;103415.59;5133748;27;20559;-55
2021/12/17 10:23:26;;;;;;;151.45;54.95;;;;;;;8.36;98.69;103417.28;5133811;27;20126;-56
2021/12/17 10:25:52;;;;;;;168.18;58.42;;;;;;;8.29;98.78;103414.94;5133581;27;20280;-51
2021/12/17 10:28:19;;;;;;;166.18;56.33;;;;;;;8.31;99.13;103414.88;5133609;27;20079;-58
2021/12/17 10:30:48;;;;;;;168.70;57.83;;;;;;;8.30;99.01;103411.41;5133040;27;20517;-53
2021/12/17 10:33:18;;;;;;;164.52;56.97;;;;;;;8.30;99.41;103403.59;5134068;27;20409;-52
2021/12/17 10:35:48;;;;;;;154.00;55.38;;;;;;;8.40;99.20;103405.78;5133802;27;20043;-51
2021/12/17 10:38:17;;;;;;;175.32;58.90;;;;;;;8.31;99.21;103405.28;5133360;27;20416;-52
2021/12/17 10:40:50;;;;;;;176.07;58.65;;;;;;;8.37;99.45;103406.78;5133739;27;20074;-52
2021/12/17 10:43:21;;;;;;;;;;;;;;;8.58;98.91;103416.16;5134199;27;20047;-51
2021/12/17 10:46:00;;;;;;;167.52;55.78;;;;;;;8.52;98.63;103402.56;5133549;27;20361;-51
2021/12/17 10:48:32;;;;;;;177.73;58.15;;;;;;;8.55;98.96;103397.19;5133093;27;20134;-54
2021/12/17 10:51:16;;;;;;;164.30;54.60;;;;;;;8.48;98.70;103393.22;5133528;27;20055;-53
2021/12/17 10:53:45;;;;;;;186.95;58.78;;;;;;;8.46;99.03;103393.28;5133179;27;20055;-51
2021/12/17 10:56:17;;;;;;;164.10;57.28;;;;;;;8.69;98.61;103399.13;5132840;27;20138;-50
2021/12/17 10:58:56;;;;;;;170.77;56.60;;;;;;;8.62;98.49;103393.38;5133164;27;20054;-52
2021/12/17 11:01:36;;;;;;;157.85;56.35;;;;;;;8.55;98.71;103397.19;5133291;27;20105;-50
2021/12/17 11:04:06;;;;;;;153.40;53.90;;;;;;;8.50;98.56;103407.03;5133162;27;20047;-50
2021/12/17 11:06:43;;;;;;;152.25;53.60;;;;;;;8.55;98.73;103402.41;5132819;27;20451;-52
2021/12/17 11:09:09;;;;;;;159.43;52.65;;;;;;;8.57;98.20;103396.19;5132615;27;20525;-52
2021/12/17 11:11:41;;;;;;;132.20;49.05;;;;;;;8.56;98.51;103404.94;5132597;27;20079;-50
2021/12/17 11:14:08;;;;;;;138.88;49.78;;;;;;;8.56;98.53;103407.56;5132787;27;20043;-49
2021/12/17 11:16:38;;;;;;;137.07;48.60;;;;;;;8.59;98.48;103398.72;5132680;27;20130;-53
2021/12/17 11:19:05;;;;;;;122.00;44.88;;;;;;;8.59;98.22;103396.97;5132969;27;20059;-54
2021/12/17 11:21:33;;;;;;;128.38;45.38;;;;;;;8.66;98.16;103394.91;5133029;27;20047;-53
2021/12/17 11:24:00;;;;;;;127.88;45.17;;;;;;;8.70;98.01;103395.59;5132714;27;20500;-50
2021/12/17 11:26:28;;;;;;;113.43;44.17;;;;;;;8.74;97.71;103391.91;5132656;27;20417;-50
2021/12/17 11:29:00;;;;;;;114.32;44.10;;;;;;;8.71;97.72;103390.31;5132455;27;20042;-55
2021/12/17 11:31:28;;;;;;;138.17;49.00;;;;;;;8.79;97.97;103390.78;5132769;27;20043;-52
2021/12/17 11:33:57;;;;;;;143.55;48.40;;;;;;;8.79;97.83;103390.78;5132287;27;20047;-50
2021/12/17 11:36:23;;;;;;;142.30;48.67;;;;;;;8.71;97.88;103387.69;5132424;27;20085;-51
2021/12/17 11:38:59;;;;;;;143.50;48.67;;;;;;;8.71;98.15;103399.91;5132047;27;20134;-48
2021/12/17 11:41:37;;;;;;;136.00;47.20;;;;;;;8.71;98.15;103397.28;5132352;27;20086;-52
2021/12/17 11:44:09;;;;;;;115.85;43.13;;;;;;;8.77;97.49;103397.84;5132403;27;20078;-50
2021/12/17 11:46:35;;;;;;;120.85;43.60;;;;;;;8.58;97.95;103395.28;5132283;27;20459;-51
2021/12/17 11:49:05;;;;;;;105.75;40.92;;;;;;;8.68;97.72;103387.00;5132000;27;20231;-52
2021/12/17 11:51:33;;;;;;;103.38;40.65;;;;;;;8.65;97.85;103391.44;5132364;27;20469;-52
2021/12/17 11:54:08;;;;;;;99.30;39.20;;;;;;;8.72;97.85;103386.78;5132220;27;20138;-56
2021/12/17 11:56:42;;;;;;;104.78;39.53;;;;;;;8.65;98.23;103393.22;5132593;27;20130;-56
2021/12/17 11:59:31;;;;;;;99.10;39.20;;;;;;;8.71;97.95;103400.75;5131988;27;20497;-54
2021/12/17 12:02:02;;;;;;;98.25;38.03;;;;;;;8.73;97.78;103392.84;5132321;27;20439;-55
2021/12/17 12:04:41;;;;;;;100.97;38.92;;;;;;;8.72;97.71;103397.22;5132605;27;20097;-52
2021/12/17 12:07:13;;;;;;;89.18;36.53;;;;;;;8.73;97.49;103400.66;5131785;27;20134;-51
2021/12/17 12:10:01;;;;;;;96.45;38.15;;;;;;;8.76;97.34;103390.91;5131803;27;20104;-53
2021/12/17 12:12:32;;;;;;;95.60;36.97;;;;;;;8.74;97.33;103391.91;5132382;27;20130;-52
2021/12/17 12:15:38;;;;;;;97.60;38.42;;;;;;;8.68;97.31;103382.63;5132032;27;20051;-54
2021/12/17 12:18:11;;;;;;;91.70;37.08;;;;;;;8.72;97.49;103378.94;5129417;27;20092;-54
2021/12/17 12:20:50;;;;;;;94.32;37.58;;;;;;;8.64;97.58;103384.53;5132000;27;20089;-53
2021/12/17 12:23:19;;;;;;;89.00;35.05;;;;;;;8.71;97.09;103384.25;5132202;27;20058;-58
2021/12/17 12:25:47;;;;;;;88.78;35.85;;;;;;;8.66;97.46;103392.28;5131937;28;20467;-54
2021/12/17 12:28:15;;;;;;;85.15;35.55;;;;;;;8.67;97.55;103386.16;5131730;27;20472;-56
2021/12/17 12:30:45;;;;;;;88.80;36.70;;;;;;;8.79;97.26;103380.31;5131969;27;20047;-55
2021/12/17 12:33:14;;;;;;;88.05;36.20;;;;;;;8.65;96.92;103385.38;5131858;27;20103;-54
2021/12/17 12:35:56;;;;;;;90.40;37.40;;;;;;;8.67;97.26;103374.88;5131677;27;20126;-51
2021/12/17 12:38:30;;;;;;;87.38;35.50;;;;;;;8.74;97.18;103376.25;5131517;27;20109;-53
2021/12/17 12:40:58;;;;;;;82.80;35.92;;;;;;;8.76;97.14;103380.47;5131777;27;20138;-51
2021/12/17 12:43:26;;;;;;;81.50;37.28;;;;;;;8.72;97.34;103373.72;5131819;27;20051;-48
2021/12/17 12:45:54;;;;;;;83.68;36.17;;;;;;;8.67;97.37;103370.50;5131646;27;20146;-52
2021/12/17 12:48:33;;;;;;;83.20;35.35;;;;;;;8.81;97.45;103375.03;5131704;27;20105;-51
2021/12/17 12:51:14;;;;;;;89.28;35.65;;;;;;;8.73;97.42;103370.19;5133206;27;20047;-50
2021/12/17 12:53:46;;;;;;;84.13;34.47;;;;;;;8.85;97.13;103366.97;5135999;27;20151;-51
2021/12/17 12:56:18;;;;;;;80.93;34.28;;;;;;;8.77;97.10;103368.28;5135239;27;20058;-54
2021/12/17 12:58:50;;;;;;;81.53;35.28;;;;;;;8.70;97.41;103370.34;5135173;27;20050;-55
2021/12/17 13:01:21;;;;;;;81.95;35.83;;;;;;;8.60;97.74;103369.09;5135280;27;20055;-54
2021/12/17 13:03:48;;;;;;;85.50;35.85;;;;;;;8.67;98.07;103361.81;5135415;27;20130;-54
2021/12/17 13:06:17;;;;;;;78.85;35.45;;;;;;;8.76;97.57;103359.59;5135465;27;20046;-54
2021/12/17 13:08:45;;;;;;;85.55;35.85;;;;;;;8.77;97.39;103361.28;5134929;27;20047;-51
2021/12/17 13:11:12;;;;;;;78.28;34.58;;;;;;;8.70;97.72;103359.91;5135426;27;20138;-51
2021/12/17 13:13:45;;;;;;;71.63;33.17;;;;;;;8.64;98.03;103363.66;5135330;27;20047;-52
2021/12/17 13:16:18;;;;;;;75.75;34.33;;;;;;;8.70;98.08;103370.34;5134839;27;20055;-51
2021/12/17 13:21:41;;;;;;;70.22;33.42;;;;;;;8.63;98.00;103358.50;5134971;27;20058;-53
2021/12/17 13:24:13;;;;;;;75.88;32.80;;;;;;;8.65;97.88;103367.13;5134906;27;20043;-50
2021/12/17 13:26:44;;;;;;;66.40;32.13;;;;;;;8.68;97.42;103364.34;5134533;27;20059;-51
2021/12/17 13:29:14;;;;;;;66.38;31.10;;;;;;;8.70;97.61;103357.28;5134483;27;20576;-51
2021/12/17 13:31:44;;;;;;;64.25;31.20;;;;;;;8.76;97.04;103363.97;5134465;27;20420;-53
2021/12/17 13:34:16;;;;;;;70.68;31.10;;;;;;;8.73;97.16;103364.13;5134796;27;20086;-52
2021/12/17 13:36:56;;;;;;;54.17;25.20;;;;;;;8.77;96.31;103358.66;5134596;27;20086;-50
2021/12/17 13:39:25;;;;;;;38.78;20.98;;;;;;;8.80;95.33;103355.06;5134341;27;20079;-54
2021/12/17 13:41:54;;;;;;;35.75;18.67;;;;;;;8.72;94.60;103350.22;5134713;27;20497;-50
2021/12/17 13:44:36;;;;;;;34.05;19.73;;;;;;;8.75;94.88;103352.69;5134399;27;20147;-51
2021/12/17 13:47:12;;;;;;;32.88;18.85;;;;;;;8.84;94.96;103347.00;5134675;27;20121;-55
2021/12/17 13:49:41;;;;;;;35.80;19.67;;;;;;;8.85;94.92;103343.47;5134118;27;20130;-54